sensor_id;sensor_type;location;lat;lon;timestamp;P1;durP1;ratioP1;P2;durP2;ratioP2
10303;SDS011;5197;48.152;8.590;2023-09-08T00:00:24;6.13;;;5.73;;
10303;SDS011;5197;48.152;8.590;2023-09-08T00:02:51;6.53;;;5.93;;
10303;SDS011;5197;48.152;8.590;2023-09-08T00:05:18;6.70;;;6.20;;
10303;SDS011;5197;48.152;8.590;2023-09-08T00:07:45;6.80;;;6.30;;
10303;SDS011;5197;48.152;8.590;2023-09-08T00:10:11;7.23;;;6.57;;
10303;SDS011;5197;48.152;8.590;2023-09-08T00:12:38;7.33;;;6.50;;
10303;SDS011;5197;48.152;8.590;2023-09-08T00:15:06;7.07;;;6.47;;
10303;SDS011;5197;48.152;8.590;2023-09-08T00:17:33;7.07;;;6.47;;
10303;SDS011;5197;48.152;8.590;2023-09-08T00:20:00;6.80;;;6.30;;
10303;SDS011;5197;48.152;8.590;2023-09-08T00:22:27;7.53;;;6.93;;
10303;SDS011;5197;48.152;8.590;2023-09-08T00:24:54;7.20;;;6.60;;
10303;SDS011;5197;48.152;8.590;2023-09-08T00:27:21;6.37;;;5.87;;
10303;SDS011;5197;48.152;8.590;2023-09-08T00:29:48;7.10;;;6.50;;
10303;SDS011;5197;48.152;8.590;2023-09-08T00:32:15;6.80;;;6.30;;
10303;SDS011;5197;48.152;8.590;2023-09-08T00:34:42;7.03;;;6.43;;
10303;SDS011;5197;48.152;8.590;2023-09-08T00:37:09;6.73;;;6.03;;
10303;SDS011;5197;48.152;8.590;2023-09-08T00:39:37;7.00;;;6.10;;
10303;SDS011;5197;48.152;8.590;2023-09-08T00:42:04;6.83;;;6.13;;
10303;SDS011;5197;48.152;8.590;2023-09-08T00:44:31;7.80;;;7.20;;
10303;SDS011;5197;48.152;8.590;2023-09-08T00:46:58;6.73;;;6.10;;
10303;SDS011;5197;48.152;8.590;2023-09-08T00:49:25;7.67;;;6.87;;
10303;SDS011;5197;48.152;8.590;2023-09-08T00:51:52;8.43;;;6.73;;
10303;SDS011;5197;48.152;8.590;2023-09-08T00:54:19;7.20;;;6.57;;
10303;SDS011;5197;48.152;8.590;2023-09-08T00:56:47;7.97;;;7.23;;
10303;SDS011;5197;48.152;8.590;2023-09-08T00:59:20;7.60;;;6.90;;
10303;SDS011;5197;48.152;8.590;2023-09-08T01:01:47;7.80;;;7.10;;
10303;SDS011;5197;48.152;8.590;2023-09-08T01:04:14;8.47;;;7.77;;
10303;SDS011;5197;48.152;8.590;2023-09-08T01:06:41;8.87;;;7.10;;
10303;SDS011;5197;48.152;8.590;2023-09-08T01:09:08;6.97;;;6.30;;
10303;SDS011;5197;48.152;8.590;2023-09-08T01:11:37;8.90;;;6.93;;
10303;SDS011;5197;48.152;8.590;2023-09-08T01:14:04;7.77;;;6.77;;
10303;SDS011;5197;48.152;8.590;2023-09-08T01:16:30;7.37;;;6.60;;
10303;SDS011;5197;48.152;8.590;2023-09-08T01:18:57;7.83;;;7.07;;
10303;SDS011;5197;48.152;8.590;2023-09-08T01:24:29;9.10;;;7.20;;
10303;SDS011;5197;48.152;8.590;2023-09-08T01:30:15;8.87;;;7.97;;
10303;SDS011;5197;48.152;8.590;2023-09-08T01:32:43;8.47;;;7.70;;
10303;SDS011;5197;48.152;8.590;2023-09-08T01:35:11;10.13;;;8.07;;
10303;SDS011;5197;48.152;8.590;2023-09-08T01:37:41;8.90;;;8.00;;
10303;SDS011;5197;48.152;8.590;2023-09-08T01:40:14;8.80;;;7.90;;
10303;SDS011;5197;48.152;8.590;2023-09-08T01:42:41;8.90;;;8.00;;
10303;SDS011;5197;48.152;8.590;2023-09-08T01:45:08;9.00;;;8.20;;
10303;SDS011;5197;48.152;8.590;2023-09-08T01:47:38;9.67;;;8.77;;
10303;SDS011;5197;48.152;8.590;2023-09-08T01:50:06;9.40;;;8.00;;
10303;SDS011;5197;48.152;8.590;2023-09-08T01:52:33;9.40;;;8.57;;
10303;SDS011;5197;48.152;8.590;2023-09-08T01:55:00;10.63;;;7.90;;
10303;SDS011;5197;48.152;8.590;2023-09-08T01:57:27;12.07;;;8.43;;
10303;SDS011;5197;48.152;8.590;2023-09-08T01:59:54;8.90;;;8.00;;
10303;SDS011;5197;48.152;8.590;2023-09-08T02:02:21;11.13;;;8.33;;
10303;SDS011;5197;48.152;8.590;2023-09-08T02:04:48;8.13;;;7.43;;
10303;SDS011;5197;48.152;8.590;2023-09-08T02:07:15;8.77;;;8.07;;
10303;SDS011;5197;48.152;8.590;2023-09-08T02:09:42;8.43;;;7.73;;
10303;SDS011;5197;48.152;8.590;2023-09-08T02:12:09;8.87;;;8.07;;
10303;SDS011;5197;48.152;8.590;2023-09-08T02:14:36;8.93;;;8.20;;
10303;SDS011;5197;48.152;8.590;2023-09-08T02:17:04;9.83;;;8.80;;
10303;SDS011;5197;48.152;8.590;2023-09-08T02:19:32;9.03;;;8.10;;
10303;SDS011;5197;48.152;8.590;2023-09-08T02:21:59;9.10;;;8.27;;
10303;SDS011;5197;48.152;8.590;2023-09-08T02:24:26;8.47;;;7.67;;
10303;SDS011;5197;48.152;8.590;2023-09-08T02:26:54;10.27;;;8.47;;
10303;SDS011;5197;48.152;8.590;2023-09-08T02:29:21;8.33;;;7.53;;
10303;SDS011;5197;48.152;8.590;2023-09-08T02:31:49;8.43;;;7.63;;
10303;SDS011;5197;48.152;8.590;2023-09-08T02:34:15;9.73;;;8.83;;
10303;SDS011;5197;48.152;8.590;2023-09-08T02:36:42;9.47;;;8.53;;
10303;SDS011;5197;48.152;8.590;2023-09-08T02:39:09;9.50;;;7.60;;
10303;SDS011;5197;48.152;8.590;2023-09-08T02:41:37;8.67;;;7.77;;
10303;SDS011;5197;48.152;8.590;2023-09-08T02:44:04;9.00;;;8.20;;
10303;SDS011;5197;48.152;8.590;2023-09-08T02:46:31;10.37;;;8.33;;
10303;SDS011;5197;48.152;8.590;2023-09-08T02:48:58;10.57;;;8.90;;
10303;SDS011;5197;48.152;8.590;2023-09-08T02:51:25;9.57;;;8.67;;
10303;SDS011;5197;48.152;8.590;2023-09-08T02:53:52;9.70;;;8.67;;
10303;SDS011;5197;48.152;8.590;2023-09-08T02:56:19;8.80;;;8.00;;
10303;SDS011;5197;48.152;8.590;2023-09-08T02:58:46;9.23;;;8.33;;
10303;SDS011;5197;48.152;8.590;2023-09-08T03:01:14;9.27;;;8.50;;
10303;SDS011;5197;48.152;8.590;2023-09-08T03:03:42;9.20;;;8.40;;
10303;SDS011;5197;48.152;8.590;2023-09-08T03:06:10;8.97;;;8.27;;
10303;SDS011;5197;48.152;8.590;2023-09-08T03:08:37;9.17;;;7.57;;
10303;SDS011;5197;48.152;8.590;2023-09-08T03:11:04;11.23;;;8.73;;
10303;SDS011;5197;48.152;8.590;2023-09-08T03:13:32;11.07;;;8.63;;
10303;SDS011;5197;48.152;8.590;2023-09-08T03:16:06;10.47;;;8.70;;
10303;SDS011;5197;48.152;8.590;2023-09-08T03:18:34;9.60;;;8.80;;
10303;SDS011;5197;48.152;8.590;2023-09-08T03:21:05;9.37;;;8.43;;
10303;SDS011;5197;48.152;8.590;2023-09-08T03:23:36;10.23;;;9.27;;
10303;SDS011;5197;48.152;8.590;2023-09-08T03:26:08;9.50;;;8.60;;
10303;SDS011;5197;48.152;8.590;2023-09-08T03:28:36;11.13;;;9.17;;
10303;SDS011;5197;48.152;8.590;2023-09-08T03:31:05;9.53;;;8.73;;
10303;SDS011;5197;48.152;8.590;2023-09-08T03:33:32;8.50;;;7.90;;
10303;SDS011;5197;48.152;8.590;2023-09-08T03:36:00;10.20;;;9.30;;
10303;SDS011;5197;48.152;8.590;2023-09-08T03:38:27;9.27;;;8.10;;
10303;SDS011;5197;48.152;8.590;2023-09-08T03:40:54;8.80;;;8.00;;
10303;SDS011;5197;48.152;8.590;2023-09-08T03:43:21;10.00;;;9.03;;
10303;SDS011;5197;48.152;8.590;2023-09-08T03:45:47;10.00;;;9.10;;
10303;SDS011;5197;48.152;8.590;2023-09-08T03:48:15;9.53;;;8.63;;
10303;SDS011;5197;48.152;8.590;2023-09-08T03:50:42;8.77;;;8.03;;
10303;SDS011;5197;48.152;8.590;2023-09-08T03:53:11;9.90;;;9.03;;
10303;SDS011;5197;48.152;8.590;2023-09-08T03:55:39;9.73;;;8.93;;
10303;SDS011;5197;48.152;8.590;2023-09-08T03:58:06;10.63;;;9.73;;
10303;SDS011;5197;48.152;8.590;2023-09-08T04:00:34;10.33;;;9.27;;
10303;SDS011;5197;48.152;8.590;2023-09-08T04:03:01;11.20;;;10.10;;
10303;SDS011;5197;48.152;8.590;2023-09-08T04:05:28;11.50;;;10.30;;
10303;SDS011;5197;48.152;8.590;2023-09-08T04:07:55;10.43;;;9.40;;
10303;SDS011;5197;48.152;8.590;2023-09-08T04:10:22;9.53;;;8.70;;
10303;SDS011;5197;48.152;8.590;2023-09-08T04:12:49;11.53;;;10.53;;
10303;SDS011;5197;48.152;8.590;2023-09-08T04:15:15;10.60;;;9.50;;
10303;SDS011;5197;48.152;8.590;2023-09-08T04:17:43;10.83;;;9.77;;
10303;SDS011;5197;48.152;8.590;2023-09-08T04:20:10;11.60;;;10.60;;
10303;SDS011;5197;48.152;8.590;2023-09-08T04:22:37;10.53;;;9.53;;
10303;SDS011;5197;48.152;8.590;2023-09-08T04:25:04;10.23;;;9.33;;
10303;SDS011;5197;48.152;8.590;2023-09-08T04:27:32;10.60;;;9.37;;
10303;SDS011;5197;48.152;8.590;2023-09-08T04:29:59;9.97;;;8.77;;
10303;SDS011;5197;48.152;8.590;2023-09-08T04:32:26;10.60;;;9.53;;
10303;SDS011;5197;48.152;8.590;2023-09-08T04:34:53;10.37;;;9.50;;
10303;SDS011;5197;48.152;8.590;2023-09-08T04:37:20;11.07;;;10.17;;
10303;SDS011;5197;48.152;8.590;2023-09-08T04:39:48;11.17;;;10.03;;
10303;SDS011;5197;48.152;8.590;2023-09-08T04:42:14;11.80;;;10.63;;
10303;SDS011;5197;48.152;8.590;2023-09-08T04:44:41;11.93;;;10.63;;
10303;SDS011;5197;48.152;8.590;2023-09-08T04:47:08;10.27;;;9.37;;
10303;SDS011;5197;48.152;8.590;2023-09-08T04:49:35;12.37;;;11.03;;
10303;SDS011;5197;48.152;8.590;2023-09-08T04:52:03;12.53;;;10.93;;
10303;SDS011;5197;48.152;8.590;2023-09-08T04:54:31;11.17;;;10.27;;
10303;SDS011;5197;48.152;8.590;2023-09-08T04:56:58;12.40;;;11.30;;
10303;SDS011;5197;48.152;8.590;2023-09-08T04:59:45;12.47;;;11.47;;
10303;SDS011;5197;48.152;8.590;2023-09-08T05:02:12;12.80;;;11.50;;
10303;SDS011;5197;48.152;8.590;2023-09-08T05:04:39;12.20;;;11.00;;
10303;SDS011;5197;48.152;8.590;2023-09-08T05:07:06;14.13;;;11.37;;
10303;SDS011;5197;48.152;8.590;2023-09-08T05:09:33;14.10;;;12.77;;
10303;SDS011;5197;48.152;8.590;2023-09-08T05:12:00;12.63;;;11.43;;
10303;SDS011;5197;48.152;8.590;2023-09-08T05:14:27;12.93;;;10.73;;
10303;SDS011;5197;48.152;8.590;2023-09-08T05:16:54;11.70;;;10.50;;
10303;SDS011;5197;48.152;8.590;2023-09-08T05:19:22;12.27;;;10.97;;
10303;SDS011;5197;48.152;8.590;2023-09-08T05:21:50;12.17;;;11.10;;
10303;SDS011;5197;48.152;8.590;2023-09-08T05:24:18;14.40;;;11.83;;
10303;SDS011;5197;48.152;8.590;2023-09-08T05:26:47;14.60;;;11.80;;
10303;SDS011;5197;48.152;8.590;2023-09-08T05:29:14;12.33;;;11.20;;
10303;SDS011;5197;48.152;8.590;2023-09-08T05:31:41;12.87;;;11.53;;
10303;SDS011;5197;48.152;8.590;2023-09-08T05:34:08;12.87;;;11.57;;
10303;SDS011;5197;48.152;8.590;2023-09-08T05:36:35;11.67;;;10.57;;
10303;SDS011;5197;48.152;8.590;2023-09-08T05:39:04;12.93;;;11.70;;
10303;SDS011;5197;48.152;8.590;2023-09-08T05:41:32;13.23;;;11.50;;
10303;SDS011;5197;48.152;8.590;2023-09-08T05:44:00;11.47;;;9.87;;
10303;SDS011;5197;48.152;8.590;2023-09-08T05:46:27;11.33;;;10.33;;
10303;SDS011;5197;48.152;8.590;2023-09-08T05:48:54;11.57;;;10.67;;
10303;SDS011;5197;48.152;8.590;2023-09-08T05:51:21;13.07;;;11.73;;
10303;SDS011;5197;48.152;8.590;2023-09-08T05:53:49;11.57;;;10.40;;
10303;SDS011;5197;48.152;8.590;2023-09-08T05:56:17;13.20;;;10.83;;
10303;SDS011;5197;48.152;8.590;2023-09-08T05:58:45;12.10;;;10.93;;
10303;SDS011;5197;48.152;8.590;2023-09-08T06:01:12;13.10;;;11.80;;
10303;SDS011;5197;48.152;8.590;2023-09-08T06:03:39;12.73;;;11.37;;
10303;SDS011;5197;48.152;8.590;2023-09-08T06:06:07;12.10;;;10.97;;
10303;SDS011;5197;48.152;8.590;2023-09-08T06:08:34;12.80;;;11.57;;
10303;SDS011;5197;48.152;8.590;2023-09-08T06:11:01;12.73;;;10.40;;
10303;SDS011;5197;48.152;8.590;2023-09-08T06:13:28;11.60;;;10.60;;
10303;SDS011;5197;48.152;8.590;2023-09-08T06:15:55;11.87;;;10.57;;
10303;SDS011;5197;48.152;8.590;2023-09-08T06:18:22;12.10;;;10.80;;
10303;SDS011;5197;48.152;8.590;2023-09-08T06:20:49;10.87;;;9.87;;
10303;SDS011;5197;48.152;8.590;2023-09-08T06:23:19;12.40;;;10.03;;
10303;SDS011;5197;48.152;8.590;2023-09-08T06:25:48;16.07;;;9.50;;
10303;SDS011;5197;48.152;8.590;2023-09-08T06:28:15;9.10;;;8.03;;
10303;SDS011;5197;48.152;8.590;2023-09-08T06:30:42;7.83;;;7.07;;
10303;SDS011;5197;48.152;8.590;2023-09-08T06:33:09;6.87;;;6.37;;
10303;SDS011;5197;48.152;8.590;2023-09-08T06:35:36;7.83;;;7.13;;
10303;SDS011;5197;48.152;8.590;2023-09-08T06:38:03;7.63;;;6.97;;
10303;SDS011;5197;48.152;8.590;2023-09-08T06:40:30;8.32;;;6.20;;
10303;SDS011;5197;48.152;8.590;2023-09-08T06:42:57;12.68;;;7.13;;
10303;SDS011;5197;48.152;8.590;2023-09-08T06:45:28;9.38;;;6.85;;
10303;SDS011;5197;48.152;8.590;2023-09-08T06:47:55;7.20;;;6.60;;
10303;SDS011;5197;48.152;8.590;2023-09-08T06:50:22;7.53;;;6.25;;
10303;SDS011;5197;48.152;8.590;2023-09-08T06:52:50;6.95;;;6.40;;
10303;SDS011;5197;48.152;8.590;2023-09-08T06:55:17;7.80;;;6.40;;
10303;SDS011;5197;48.152;8.590;2023-09-08T06:57:46;6.97;;;6.30;;
10303;SDS011;5197;48.152;8.590;2023-09-08T07:00:13;7.00;;;6.40;;
10303;SDS011;5197;48.152;8.590;2023-09-08T07:02:40;6.35;;;5.85;;
10303;SDS011;5197;48.152;8.590;2023-09-08T07:05:07;7.68;;;6.30;;
10303;SDS011;5197;48.152;8.590;2023-09-08T07:07:35;8.40;;;6.22;;
10303;SDS011;5197;48.152;8.590;2023-09-08T07:10:02;6.85;;;6.20;;
10303;SDS011;5197;48.152;8.590;2023-09-08T07:12:30;7.30;;;6.65;;
10303;SDS011;5197;48.152;8.590;2023-09-08T07:14:57;6.38;;;5.88;;
10303;SDS011;5197;48.152;8.590;2023-09-08T07:17:26;7.70;;;6.60;;
10303;SDS011;5197;48.152;8.590;2023-09-08T07:19:53;12.75;;;6.40;;
10303;SDS011;5197;48.152;8.590;2023-09-08T07:22:20;6.18;;;5.68;;
10303;SDS011;5197;48.152;8.590;2023-09-08T07:24:47;6.55;;;5.90;;
10303;SDS011;5197;48.152;8.590;2023-09-08T07:27:14;6.63;;;6.03;;
10303;SDS011;5197;48.152;8.590;2023-09-08T07:29:41;5.95;;;5.53;;
10303;SDS011;5197;48.152;8.590;2023-09-08T07:32:08;6.85;;;5.68;;
10303;SDS011;5197;48.152;8.590;2023-09-08T07:34:36;6.45;;;5.75;;
10303;SDS011;5197;48.152;8.590;2023-09-08T07:40:38;5.75;;;5.35;;
10303;SDS011;5197;48.152;8.590;2023-09-08T07:43:07;5.95;;;5.50;;
10303;SDS011;5197;48.152;8.590;2023-09-08T07:45:35;6.70;;;6.10;;
10303;SDS011;5197;48.152;8.590;2023-09-08T07:48:02;6.38;;;5.82;;
10303;SDS011;5197;48.152;8.590;2023-09-08T07:50:29;7.60;;;5.72;;
10303;SDS011;5197;48.152;8.590;2023-09-08T07:52:58;6.43;;;5.80;;
10303;SDS011;5197;48.152;8.590;2023-09-08T07:55:25;6.38;;;5.88;;
10303;SDS011;5197;48.152;8.590;2023-09-08T07:57:55;7.47;;;6.07;;
10303;SDS011;5197;48.152;8.590;2023-09-08T08:00:25;6.25;;;5.75;;
10303;SDS011;5197;48.152;8.590;2023-09-08T08:02:54;6.20;;;5.82;;
10303;SDS011;5197;48.152;8.590;2023-09-08T08:05:22;6.00;;;5.47;;
10303;SDS011;5197;48.152;8.590;2023-09-08T08:07:50;7.03;;;6.20;;
10303;SDS011;5197;48.152;8.590;2023-09-08T08:10:17;6.75;;;5.75;;
10303;SDS011;5197;48.152;8.590;2023-09-08T08:12:44;6.00;;;5.40;;
10303;SDS011;5197;48.152;8.590;2023-09-08T08:15:11;6.45;;;5.85;;
10303;SDS011;5197;48.152;8.590;2023-09-08T08:17:39;7.03;;;6.30;;
10303;SDS011;5197;48.152;8.590;2023-09-08T08:20:07;5.93;;;5.43;;
10303;SDS011;5197;48.152;8.590;2023-09-08T08:22:36;5.88;;;5.40;;
10303;SDS011;5197;48.152;8.590;2023-09-08T08:25:03;6.10;;;5.70;;
10303;SDS011;5197;48.152;8.590;2023-09-08T08:27:31;6.78;;;5.65;;
10303;SDS011;5197;48.152;8.590;2023-09-08T08:29:58;5.85;;;5.32;;
10303;SDS011;5197;48.152;8.590;2023-09-08T08:32:27;6.72;;;4.82;;
10303;SDS011;5197;48.152;8.590;2023-09-08T08:34:55;5.55;;;5.15;;
10303;SDS011;5197;48.152;8.590;2023-09-08T08:37:23;5.65;;;5.07;;
10303;SDS011;5197;48.152;8.590;2023-09-08T08:39:50;6.22;;;5.03;;
10303;SDS011;5197;48.152;8.590;2023-09-08T08:42:17;4.53;;;4.22;;
10303;SDS011;5197;48.152;8.590;2023-09-08T08:44:46;4.60;;;4.30;;
10303;SDS011;5197;48.152;8.590;2023-09-08T08:47:13;4.40;;;4.05;;
10303;SDS011;5197;48.152;8.590;2023-09-08T08:49:43;9.65;;;4.45;;
10303;SDS011;5197;48.152;8.590;2023-09-08T08:52:13;4.93;;;4.45;;
10303;SDS011;5197;48.152;8.590;2023-09-08T08:54:41;4.57;;;4.28;;
10303;SDS011;5197;48.152;8.590;2023-09-08T08:57:11;5.18;;;4.68;;
10303;SDS011;5197;48.152;8.590;2023-09-08T08:59:38;7.97;;;5.03;;
10303;SDS011;5197;48.152;8.590;2023-09-08T09:02:07;8.55;;;4.90;;
10303;SDS011;5197;48.152;8.590;2023-09-08T09:04:37;5.53;;;4.75;;
10303;SDS011;5197;48.152;8.590;2023-09-08T09:07:08;5.30;;;4.80;;
10303;SDS011;5197;48.152;8.590;2023-09-08T09:09:35;5.82;;;4.97;;
10303;SDS011;5197;48.152;8.590;2023-09-08T09:12:02;6.88;;;5.20;;
10303;SDS011;5197;48.152;8.590;2023-09-08T09:14:32;6.82;;;4.70;;
10303;SDS011;5197;48.152;8.590;2023-09-08T09:17:01;6.38;;;4.40;;
10303;SDS011;5197;48.152;8.590;2023-09-08T09:19:30;4.75;;;4.35;;
10303;SDS011;5197;48.152;8.590;2023-09-08T09:21:58;4.45;;;4.05;;
10303;SDS011;5197;48.152;8.590;2023-09-08T09:24:32;5.60;;;4.50;;
10303;SDS011;5197;48.152;8.590;2023-09-08T09:27:01;5.20;;;4.70;;
10303;SDS011;5197;48.152;8.590;2023-09-08T09:29:28;5.85;;;4.22;;
10303;SDS011;5197;48.152;8.590;2023-09-08T09:32:02;6.13;;;4.13;;
10303;SDS011;5197;48.152;8.590;2023-09-08T09:34:32;5.65;;;4.78;;
10303;SDS011;5197;48.152;8.590;2023-09-08T09:37:00;4.90;;;4.28;;
10303;SDS011;5197;48.152;8.590;2023-09-08T09:39:27;6.38;;;4.45;;
10303;SDS011;5197;48.152;8.590;2023-09-08T09:41:54;5.78;;;4.47;;
10303;SDS011;5197;48.152;8.590;2023-09-08T09:44:23;4.53;;;4.13;;
10303;SDS011;5197;48.152;8.590;2023-09-08T09:46:51;6.13;;;4.30;;
10303;SDS011;5197;48.152;8.590;2023-09-08T09:49:19;5.03;;;4.55;;
10303;SDS011;5197;48.152;8.590;2023-09-08T09:51:48;4.43;;;4.00;;
10303;SDS011;5197;48.152;8.590;2023-09-08T09:54:17;4.82;;;4.38;;
10303;SDS011;5197;48.152;8.590;2023-09-08T09:56:44;5.20;;;4.78;;
10303;SDS011;5197;48.152;8.590;2023-09-08T09:59:16;6.90;;;4.53;;
10303;SDS011;5197;48.152;8.590;2023-09-08T10:01:43;7.07;;;4.53;;
10303;SDS011;5197;48.152;8.590;2023-09-08T10:04:10;4.68;;;4.28;;
10303;SDS011;5197;48.152;8.590;2023-09-08T10:06:37;4.22;;;3.92;;
10303;SDS011;5197;48.152;8.590;2023-09-08T10:09:05;5.53;;;5.03;;
10303;SDS011;5197;48.152;8.590;2023-09-08T10:11:49;5.03;;;4.50;;
10303;SDS011;5197;48.152;8.590;2023-09-08T10:14:18;4.45;;;4.15;;
10303;SDS011;5197;48.152;8.590;2023-09-08T10:16:46;4.38;;;4.05;;
10303;SDS011;5197;48.152;8.590;2023-09-08T10:19:19;4.93;;;4.43;;
10303;SDS011;5197;48.152;8.590;2023-09-08T10:21:48;6.38;;;4.40;;
10303;SDS011;5197;48.152;8.590;2023-09-08T10:24:18;4.93;;;4.28;;
10303;SDS011;5197;48.152;8.590;2023-09-08T10:26:51;12.15;;;4.90;;
10303;SDS011;5197;48.152;8.590;2023-09-08T10:29:35;7.05;;;4.38;;
10303;SDS011;5197;48.152;8.590;2023-09-08T10:32:03;8.10;;;4.30;;
10303;SDS011;5197;48.152;8.590;2023-09-08T10:34:33;4.85;;;4.35;;
10303;SDS011;5197;48.152;8.590;2023-09-08T10:37:02;4.68;;;4.20;;
10303;SDS011;5197;48.152;8.590;2023-09-08T10:39:33;5.82;;;4.20;;
10303;SDS011;5197;48.152;8.590;2023-09-08T10:47:18;7.75;;;4.18;;
10303;SDS011;5197;48.152;8.590;2023-09-08T10:49:46;4.03;;;3.75;;
10303;SDS011;5197;48.152;8.590;2023-09-08T10:52:12;6.15;;;3.80;;
10303;SDS011;5197;48.152;8.590;2023-09-08T10:54:57;4.43;;;3.92;;
10303;SDS011;5197;48.152;8.590;2023-09-08T10:57:25;5.80;;;4.30;;
10303;SDS011;5197;48.152;8.590;2023-09-08T10:59:52;4.82;;;4.20;;
10303;SDS011;5197;48.152;8.590;2023-09-08T11:02:36;4.53;;;4.13;;
10303;SDS011;5197;48.152;8.590;2023-09-08T11:05:12;4.88;;;4.32;;
10303;SDS011;5197;48.152;8.590;2023-09-08T11:07:42;5.95;;;4.18;;
10303;SDS011;5197;48.152;8.590;2023-09-08T11:10:11;5.85;;;4.13;;
10303;SDS011;5197;48.152;8.590;2023-09-08T11:12:39;4.55;;;4.25;;
10303;SDS011;5197;48.152;8.590;2023-09-08T11:15:07;4.90;;;4.45;;
10303;SDS011;5197;48.152;8.590;2023-09-08T11:17:36;4.70;;;4.00;;
10303;SDS011;5197;48.152;8.590;2023-09-08T11:20:10;5.63;;;3.75;;
10303;SDS011;5197;48.152;8.590;2023-09-08T11:22:39;4.97;;;4.07;;
10303;SDS011;5197;48.152;8.590;2023-09-08T11:25:07;4.10;;;3.80;;
10303;SDS011;5197;48.152;8.590;2023-09-08T11:27:37;4.35;;;4.00;;
10303;SDS011;5197;48.152;8.590;2023-09-08T11:30:07;4.70;;;4.30;;
10303;SDS011;5197;48.152;8.590;2023-09-08T11:32:35;4.40;;;4.00;;
10303;SDS011;5197;48.152;8.590;2023-09-08T11:35:06;6.70;;;4.03;;
10303;SDS011;5197;48.152;8.590;2023-09-08T11:37:39;4.70;;;4.15;;
10303;SDS011;5197;48.152;8.590;2023-09-08T11:40:08;4.47;;;4.07;;
10303;SDS011;5197;48.152;8.590;2023-09-08T11:42:39;6.65;;;3.90;;
10303;SDS011;5197;48.152;8.590;2023-09-08T11:45:15;4.18;;;3.88;;
10303;SDS011;5197;48.152;8.590;2023-09-08T11:47:49;4.15;;;3.80;;
10303;SDS011;5197;48.152;8.590;2023-09-08T11:50:17;3.90;;;3.60;;
10303;SDS011;5197;48.152;8.590;2023-09-08T11:52:48;6.32;;;4.13;;
10303;SDS011;5197;48.152;8.590;2023-09-08T11:55:17;7.07;;;3.70;;
10303;SDS011;5197;48.152;8.590;2023-09-08T11:57:46;5.93;;;3.80;;
10303;SDS011;5197;48.152;8.590;2023-09-08T12:00:15;4.47;;;3.83;;
10303;SDS011;5197;48.152;8.590;2023-09-08T12:02:44;4.30;;;4.00;;
10303;SDS011;5197;48.152;8.590;2023-09-08T12:05:12;4.22;;;3.92;;
10303;SDS011;5197;48.152;8.590;2023-09-08T12:07:47;4.10;;;3.80;;
10303;SDS011;5197;48.152;8.590;2023-09-08T12:10:14;4.47;;;4.07;;
10303;SDS011;5197;48.152;8.590;2023-09-08T12:12:41;4.28;;;3.88;;
10303;SDS011;5197;48.152;8.590;2023-09-08T12:15:10;4.40;;;4.00;;
10303;SDS011;5197;48.152;8.590;2023-09-08T12:17:49;4.85;;;4.00;;
10303;SDS011;5197;48.152;8.590;2023-09-08T12:20:17;4.65;;;3.88;;
10303;SDS011;5197;48.152;8.590;2023-09-08T12:22:50;4.43;;;4.15;;
10303;SDS011;5197;48.152;8.590;2023-09-08T12:25:18;6.22;;;3.90;;
10303;SDS011;5197;48.152;8.590;2023-09-08T12:27:45;4.50;;;3.90;;
10303;SDS011;5197;48.152;8.590;2023-09-08T12:30:19;4.10;;;3.80;;
10303;SDS011;5197;48.152;8.590;2023-09-08T12:32:48;4.30;;;3.95;;
10303;SDS011;5197;48.152;8.590;2023-09-08T12:35:19;4.25;;;3.85;;
10303;SDS011;5197;48.152;8.590;2023-09-08T12:37:58;4.50;;;4.10;;
10303;SDS011;5197;48.152;8.590;2023-09-08T12:40:27;6.43;;;4.10;;
10303;SDS011;5197;48.152;8.590;2023-09-08T12:42:56;4.32;;;3.90;;
10303;SDS011;5197;48.152;8.590;2023-09-08T12:45:43;4.65;;;3.83;;
10303;SDS011;5197;48.152;8.590;2023-09-08T12:48:11;7.70;;;4.38;;
10303;SDS011;5197;48.152;8.590;2023-09-08T12:50:38;5.63;;;4.05;;
10303;SDS011;5197;48.152;8.590;2023-09-08T12:53:04;4.38;;;3.85;;
10303;SDS011;5197;48.152;8.590;2023-09-08T12:55:31;4.97;;;4.50;;
10303;SDS011;5197;48.152;8.590;2023-09-08T12:57:58;4.10;;;3.60;;
10303;SDS011;5197;48.152;8.590;2023-09-08T13:00:25;7.03;;;4.45;;
10303;SDS011;5197;48.152;8.590;2023-09-08T13:02:53;3.88;;;3.58;;
10303;SDS011;5197;48.152;8.590;2023-09-08T13:05:20;3.83;;;3.53;;
10303;SDS011;5197;48.152;8.590;2023-09-08T13:07:47;4.18;;;3.83;;
10303;SDS011;5197;48.152;8.590;2023-09-08T13:10:14;6.75;;;3.80;;
10303;SDS011;5197;48.152;8.590;2023-09-08T13:12:41;4.35;;;3.90;;
10303;SDS011;5197;48.152;8.590;2023-09-08T13:15:09;4.32;;;3.95;;
10303;SDS011;5197;48.152;8.590;2023-09-08T13:17:36;4.55;;;4.15;;
10303;SDS011;5197;48.152;8.590;2023-09-08T13:20:03;3.85;;;3.50;;
10303;SDS011;5197;48.152;8.590;2023-09-08T13:22:30;4.22;;;3.92;;
10303;SDS011;5197;48.152;8.590;2023-09-08T13:24:57;5.05;;;3.78;;
10303;SDS011;5197;48.152;8.590;2023-09-08T13:27:25;4.00;;;3.70;;
10303;SDS011;5197;48.152;8.590;2023-09-08T13:30:07;4.47;;;4.18;;
10303;SDS011;5197;48.152;8.590;2023-09-08T13:32:37;3.97;;;3.60;;
10303;SDS011;5197;48.152;8.590;2023-09-08T13:35:05;5.30;;;3.95;;
10303;SDS011;5197;48.152;8.590;2023-09-08T13:37:33;6.38;;;4.03;;
10303;SDS011;5197;48.152;8.590;2023-09-08T13:40:05;6.20;;;3.88;;
10303;SDS011;5197;48.152;8.590;2023-09-08T13:42:34;5.53;;;4.00;;
10303;SDS011;5197;48.152;8.590;2023-09-08T13:45:01;4.13;;;3.55;;
10303;SDS011;5197;48.152;8.590;2023-09-08T13:47:29;4.13;;;3.72;;
10303;SDS011;5197;48.152;8.590;2023-09-08T13:49:57;4.13;;;3.83;;
10303;SDS011;5197;48.152;8.590;2023-09-08T13:52:28;4.20;;;4.00;;
10303;SDS011;5197;48.152;8.590;2023-09-08T13:54:58;4.28;;;3.92;;
10303;SDS011;5197;48.152;8.590;2023-09-08T13:57:45;4.07;;;3.55;;
10303;SDS011;5197;48.152;8.590;2023-09-08T14:00:16;4.68;;;4.00;;
10303;SDS011;5197;48.152;8.590;2023-09-08T14:02:49;4.10;;;3.75;;
10303;SDS011;5197;48.152;8.590;2023-09-08T14:05:22;6.40;;;4.00;;
10303;SDS011;5197;48.152;8.590;2023-09-08T14:07:54;3.88;;;3.63;;
10303;SDS011;5197;48.152;8.590;2023-09-08T14:10:33;4.00;;;3.70;;
10303;SDS011;5197;48.152;8.590;2023-09-08T14:13:03;4.18;;;3.83;;
10303;SDS011;5197;48.152;8.590;2023-09-08T14:15:30;4.28;;;3.97;;
10303;SDS011;5197;48.152;8.590;2023-09-08T14:17:57;4.00;;;3.70;;
10303;SDS011;5197;48.152;8.590;2023-09-08T14:20:24;4.72;;;4.05;;
10303;SDS011;5197;48.152;8.590;2023-09-08T14:22:51;5.53;;;4.15;;
10303;SDS011;5197;48.152;8.590;2023-09-08T14:25:18;4.82;;;3.80;;
10303;SDS011;5197;48.152;8.590;2023-09-08T14:27:45;4.10;;;3.72;;
10303;SDS011;5197;48.152;8.590;2023-09-08T14:30:14;4.03;;;3.78;;
10303;SDS011;5197;48.152;8.590;2023-09-08T14:32:41;6.03;;;4.03;;
10303;SDS011;5197;48.152;8.590;2023-09-08T14:35:08;4.20;;;3.90;;
10303;SDS011;5197;48.152;8.590;2023-09-08T14:37:35;4.40;;;4.10;;
10303;SDS011;5197;48.152;8.590;2023-09-08T14:40:03;3.80;;;3.50;;
10303;SDS011;5197;48.152;8.590;2023-09-08T14:42:30;3.95;;;3.65;;
10303;SDS011;5197;48.152;8.590;2023-09-08T14:44:57;4.40;;;4.00;;
10303;SDS011;5197;48.152;8.590;2023-09-08T14:47:24;4.07;;;3.75;;
10303;SDS011;5197;48.152;8.590;2023-09-08T14:49:51;5.50;;;4.00;;
10303;SDS011;5197;48.152;8.590;2023-09-08T14:52:18;4.13;;;3.85;;
10303;SDS011;5197;48.152;8.590;2023-09-08T14:54:47;4.38;;;3.55;;
10303;SDS011;5197;48.152;8.590;2023-09-08T14:57:14;5.30;;;4.10;;
10303;SDS011;5197;48.152;8.590;2023-09-08T14:59:41;4.40;;;3.88;;
10303;SDS011;5197;48.152;8.590;2023-09-08T15:02:08;3.90;;;3.65;;
10303;SDS011;5197;48.152;8.590;2023-09-08T15:04:35;3.85;;;3.55;;
10303;SDS011;5197;48.152;8.590;2023-09-08T15:07:03;4.28;;;3.83;;
10303;SDS011;5197;48.152;8.590;2023-09-08T15:09:31;4.22;;;3.92;;
10303;SDS011;5197;48.152;8.590;2023-09-08T15:11:57;4.35;;;3.67;;
10303;SDS011;5197;48.152;8.590;2023-09-08T15:14:24;4.18;;;3.78;;
10303;SDS011;5197;48.152;8.590;2023-09-08T15:16:51;5.38;;;3.85;;
10303;SDS011;5197;48.152;8.590;2023-09-08T15:19:19;4.22;;;3.70;;